Time;durP1;ratioP1;P1;durP2;ratioP2;P2;SDS_P1;SDS_P2;PMS_P1;PMS_P2;Temp;Humidity;BMP_temperature;BMP_pressure;BME280_temperature;BME280_humidity;BME280_pressure;Samples;Min_cycle;Max_cycle;Signal;HPM_P1;HPM_P2
2022/12/22 03:26:37;;;;;;;;;;;;;;;8.51;100.00;100222.66;4994147;28;19921;-72
2022/12/22 03:29:03;;;;;;;;;;;;;;;8.49;100.00;100219.25;4995745;28;19917;-71
2022/12/22 03:31:28;;;;;;;;;;;;;;;8.48;100.00;100216.72;4995128;28;20342;-71
2022/12/22 03:33:53;;;;;;;;;;;;;;;8.47;100.00;100215.00;4995974;28;19940;-71
2022/12/22 03:36:18;;;;;;;;;;;;;;;8.46;100.00;100215.94;4975765;28;19996;-72
2022/12/22 03:38:44;;;;;;;;;;;;;;;8.46;100.00;100208.19;4984297;28;20277;-71
2022/12/22 03:46:28;;;;;;;;;;;;;;;8.44;100.00;100210.78;4994485;28;19941;-71
2022/12/22 03:46:38;;;;;;;;;;;;;;;8.42;100.00;100197.06;4986842;28;19972;-71
2022/12/22 03:49:09;;;;;;;;;;;;;;;8.40;100.00;100196.25;4995416;28;19913;-67
2022/12/22 03:51:35;;;;;;;;;;;;;;;8.35;100.00;100185.19;4996129;28;19917;-68
2022/12/22 03:54:01;;;;;;;;;;;;;;;8.34;100.00;100188.66;4995319;28;20662;-68
2022/12/22 03:56:26;;;;;;;;;;;;;;;8.31;100.00;100186.16;4994779;28;20377;-67
2022/12/22 03:58:51;;;;;;;;;;;;;;;8.28;100.00;100194.78;4996054;28;19972;-67
2022/12/22 04:01:16;;;;;;;;;;;;;;;8.26;100.00;100190.53;4995432;28;19944;-68
2022/12/22 04:03:42;;;;;;;;;;;;;;;8.23;100.00;100181.16;4995785;28;19936;-68
2022/12/22 04:06:07;;;;;;;;;;;;;;;8.22;100.00;100183.78;4995659;28;19933;-67
2022/12/22 04:08:32;;;;;;;;;;;;;;;8.18;100.00;100177.84;4987850;28;19917;-67
2022/12/22 04:13:41;;;;;;;;;;;;;;;8.18;100.00;100175.28;4995814;28;19916;-67
2022/12/22 04:16:06;;;;;;;;;;;;;;;8.19;100.00;100171.78;4987020;28;20000;-67
2022/12/22 04:18:31;;;;;;;;;;;;;;;8.17;100.00;100170.13;4993947;28;19917;-68
2022/12/22 04:20:57;;;;;;;;;;;;;;;8.15;100.00;100170.16;4998595;28;20326;-67
2022/12/22 04:23:22;;;;;;;;;;;;;;;8.16;100.00;100158.13;4994508;28;19918;-67
2022/12/22 04:25:47;;;;;;;;;;;;;;;8.16;100.00;100158.97;4993331;28;19917;-67
2022/12/22 04:28:12;;;;;;;;;;;;;;;8.16;100.00;100158.97;4995458;28;19921;-68
2022/12/22 04:30:37;;;;;;;;;;;;;;;8.16;100.00;100163.28;4995249;28;19913;-68
2022/12/22 04:33:03;;;;;;;;;;;;;;;8.16;100.00;100171.03;4994023;28;19940;-68
2022/12/22 04:35:28;;;;;;;;;;;;;;;8.17;100.00;100172.72;4994573;28;20464;-68
2022/12/22 04:37:53;;;;;;;;;;;;;;;8.17;100.00;100175.31;4995081;28;19960;-68
2022/12/22 04:40:18;;;;;;;;;;;;;;;8.19;100.00;100176.09;4994528;28;19967;-67
2022/12/22 04:42:43;;;;;;;;;;;;;;;8.20;100.00;100188.97;4989710;28;19941;-68
2022/12/22 04:45:09;;;;;;;;;;;;;;;8.22;100.00;100188.94;4986882;28;19920;-68
2022/12/22 04:47:34;;;;;;;;;;;;;;;8.22;100.00;100196.69;4993376;28;19914;-68
2022/12/22 04:49:59;;;;;;;;;;;;;;;8.22;100.00;100192.38;4994642;28;19960;-68
2022/12/22 04:52:25;;;;;;;;;;;;;;;8.24;100.00;100197.50;4994281;28;20287;-67
2022/12/22 04:54:50;;;;;;;;;;;;;;;8.22;100.00;100192.38;4976485;28;19913;-68
2022/12/22 04:57:16;;;;;;;;;;;;;;;8.19;100.00;100186.41;4995246;28;19926;-68
2022/12/22 04:59:41;;;;;;;;;;;;;;;8.20;100.00;100177.78;4977138;28;20573;-68
2022/12/22 05:02:06;;;;;;;;;;;;;;;8.20;100.00;100175.22;4975778;28;19917;-67
2022/12/22 05:04:31;;;;;;;;;;;;;;;8.18;100.00;100177.00;4994293;28;19914;-67
2022/12/22 05:06:56;;;;;;;;;;;;;;;8.18;100.00;100179.59;4994399;28;19918;-67
2022/12/22 05:09:22;;;;;;;;;;;;;;;8.18;100.00;100187.31;4994014;28;19920;-67
2022/12/22 05:11:47;;;;;;;;;;;;;;;8.18;100.00;100189.91;4994385;28;19921;-67
2022/12/22 05:14:12;;;;;;;;;;;;;;;8.16;100.00;100187.34;4994451;28;19985;-67
2022/12/22 05:16:37;;;;;;;;;;;;;;;8.16;100.00;100187.34;4992459;28;19913;-67
2022/12/22 05:19:02;;;;;;;;;;;;;;;8.17;100.00;100181.31;4984326;28;19928;-67
2022/12/22 05:21:28;;;;;;;;;;;;;;;8.19;100.00;100187.25;4994433;28;19928;-67
2022/12/22 05:23:53;;;;;;;;;;;;;;;8.20;100.00;100188.97;4975980;28;19960;-67
2022/12/22 05:26:18;;;;;;;;;;;;;;;8.21;100.00;100192.41;4993827;28;20457;-68
2022/12/22 05:28:45;;;;;;;;;;;;;;;8.22;100.00;100187.19;4994634;28;20428;-67
2022/12/22 05:31:14;;;;;;;;;;;;;;;8.22;100.00;100192.38;4992464;28;20388;-67
2022/12/22 05:33:39;;;;;;;;;;;;;;;8.24;100.00;100200.94;4993837;28;19913;-68
2022/12/22 05:36:04;;;;;;;;;;;;;;;8.25;100.00;100201.78;4994631;28;19914;-67
2022/12/22 05:38:29;;;;;;;;;;;;;;;8.27;100.00;100194.81;4980348;28;19922;-67
2022/12/22 05:40:55;;;;;;;;;;;;;;;8.29;100.00;100203.38;4966776;28;20296;-67
2022/12/22 05:43:20;;;;;;;;;;;;;;;8.30;100.00;100208.56;4989007;28;19909;-67
2022/12/22 05:45:45;;;;;;;;;;;;;;;8.32;100.00;100205.94;4993934;28;20000;-67
2022/12/22 05:48:11;;;;;;;;;;;;;;;8.35;100.00;100212.75;4993276;28;19972;-67
2022/12/22 05:50:36;;;;;;;;;;;;;;;8.37;100.00;100217.00;4993531;28;19913;-68
2022/12/22 05:53:01;;;;;;;;;;;;;;;8.37;100.00;100217.00;4993337;28;19914;-67
2022/12/22 05:55:27;;;;;;;;;;;;;;;8.38;100.00;100212.69;4992074;28;19945;-67
2022/12/22 05:57:52;;;;;;;;;;;;;;;8.39;100.00;100215.22;4981494;28;19914;-67
2022/12/22 06:00:17;;;;;;;;;;;;;;;8.41;100.00;100220.34;4995649;28;19913;-67
2022/12/22 06:02:43;;;;;;;;;;;;;;;8.43;100.00;100228.91;4997226;28;20376;-67
2022/12/22 06:05:09;;;;;;;;;;;;;;;8.43;100.00;100232.34;4998276;28;20327;-68
2022/12/22 06:07:34;;;;;;;;;;;;;;;8.43;100.00;100240.09;4997285;28;19913;-68
2022/12/22 06:09:59;;;;;;;;;;;;;;;8.46;100.00;100246.91;4998081;28;19917;-67
2022/12/22 06:12:25;;;;;;;;;;;;;;;8.45;100.00;100250.38;4997225;28;20411;-68
2022/12/22 06:14:50;;;;;;;;;;;;;;;8.46;100.00;100254.66;4995730;28;19932;-68
2022/12/22 06:17:15;;;;;;;;;;;;;;;8.48;100.00;100255.47;4997220;28;20376;-67
2022/12/22 06:19:40;;;;;;;;;;;;;;;8.48;100.00;100256.31;4997316;28;19920;-68
2022/12/22 06:22:06;;;;;;;;;;;;;;;8.49;100.00;100257.16;4996670;28;19917;-68
2022/12/22 06:24:31;;;;;;;;;;;;;;;8.50;100.00;100275.22;4998058;28;19916;-68
2022/12/22 06:26:56;;;;;;;;;;;;;;;8.51;100.00;100276.06;4997661;28;20391;-67
2022/12/22 06:29:21;;;;;;;;;;;;;;;8.52;100.00;100276.03;4997132;28;20503;-67
2022/12/22 06:31:47;;;;;;;;;;;;;;;8.52;100.00;100278.63;4994359;28;19920;-67
2022/12/22 06:34:12;;;;;;;;;;;;;;;8.52;100.00;100281.19;4997243;28;19964;-67
2022/12/22 06:36:37;;;;;;;;;;;;;;;8.53;100.00;100285.44;4984948;28;19921;-67
2022/12/22 06:39:03;;;;;;;;;;;;;;;8.53;100.00;100284.63;4996793;28;20437;-68
2022/12/22 06:44:12;;;;;;;;;;;;;;;8.54;100.00;100294.03;4996943;28;19956;-67
2022/12/22 06:46:38;;;;;;;;;;;;;;;8.54;100.00;100300.06;4988304;28;19914;-67
2022/12/22 06:49:03;;;;;;;;;;;;;;;8.53;100.00;100311.28;4973047;28;20373;-67
2022/12/22 06:51:28;;;;;;;;;;;;;;;8.54;100.00;100315.56;4996224;28;19964;-67
2022/12/22 06:53:53;;;;;;;;;;;;;;;8.53;100.00;100308.69;4995423;28;20009;-67
2022/12/22 06:56:19;;;;;;;;;;;;;;;8.54;100.00;100306.97;4994862;28;19928;-67
2022/12/22 06:58:44;;;;;;;;;;;;;;;8.53;100.00;100321.63;4995383;28;19972;-71
2022/12/22 07:01:09;;;;;;;;;;;;;;;8.54;100.00;100325.03;4994474;28;19924;-71
2022/12/22 07:03:34;;;;;;;;;;;;;;;8.52;100.00;100329.41;4994911;28;20284;-71
2022/12/22 07:05:59;;;;;;;;;;;;;;;8.51;100.00;100336.31;4995675;28;20385;-71
2022/12/22 07:08:25;;;;;;;;;;;;;;;8.50;100.00;100344.09;4996188;28;20052;-71
2022/12/22 07:10:59;;;;;;;;;;;;;;;8.49;100.00;100348.41;4996190;28;19909;-71
2022/12/22 07:13:26;;;;;;;;;;;;;;;8.49;100.00;100350.13;4996237;28;19920;-71
2022/12/22 07:15:52;;;;;;;;;;;;;;;8.49;100.00;100366.50;4992689;28;20357;-71
2022/12/22 07:18:17;;;;;;;;;;;;;;;8.50;100.00;100369.94;4995950;28;19925;-71
2022/12/22 07:20:42;;;;;;;;;;;;;;;8.49;100.00;100369.06;4996233;28;20372;-71
2022/12/22 07:23:07;;;;;;;;;;;;;;;8.49;100.00;100375.97;4988449;28;19921;-71
2022/12/22 07:25:33;;;;;;;;;;;;;;;8.46;100.00;100373.47;4995977;28;19906;-71
2022/12/22 07:27:58;;;;;;;;;;;;;;;8.43;100.00;100370.94;4990830;28;19944;-71
2022/12/22 07:30:23;;;;;;;;;;;;;;;8.38;100.00;100365.03;4993359;28;19922;-67
2022/12/22 07:32:49;;;;;;;;;;;;;;;8.35;100.00;100365.09;4996082;28;19960;-67
2022/12/22 07:35:14;;;;;;;;;;;;;;;8.29;100.00;100368.63;4996390;28;20008;-67
2022/12/22 07:37:39;;;;;;;;;;;;;;;8.24;100.00;100373.06;4988541;28;19910;-67
2022/12/22 07:40:04;;;;;;;;;;;;;;;8.18;100.00;100358.56;4986897;28;20008;-67
2022/12/22 07:42:45;;;;;;;;;;;;;;;8.12;100.00;100365.59;4995860;28;19913;-67
2022/12/22 07:45:10;;;;;;;;;;;;;;;8.03;100.00;100369.19;4993077;28;19922;-67
2022/12/22 07:47:36;;;;;;;;;;;;;;;7.98;100.00;100385.66;4997102;28;19914;-67
2022/12/22 07:52:45;;;;;;;;;;;;;;;8.01;100.00;100401.94;4989866;28;19964;-67
2022/12/22 07:55:10;;;;;;;;;;;;;;;8.05;100.00;100408.72;4990799;28;19918;-67
2022/12/22 07:57:35;;;;;;;;;;;;;;;8.09;100.00;100418.13;4993220;28;20364;-67
2022/12/22 08:00:01;;;;;;;;;;;;;;;8.12;100.00;100424.97;4995091;28;20004;-67
2022/12/22 08:02:26;;;;;;;;;;;;;;;8.15;100.00;100432.63;4995846;28;19910;-67
2022/12/22 08:04:51;;;;;;;;;;;;;;;8.18;100.00;100442.91;4994172;28;20004;-67
2022/12/22 08:07:16;;;;;;;;;;;;;;;8.17;100.00;100444.63;4976433;28;19918;-67
2022/12/22 08:09:42;;;;;;;;;;;;;;;8.18;100.00;100448.06;4983000;28;19917;-67
2022/12/22 08:12:07;;;;;;;;;;;;;;;8.18;100.00;100461.81;4984058;28;19921;-67
2022/12/22 08:14:32;;;;;;;;;;;;;;;8.19;100.00;100460.91;4992193;28;20004;-67
2022/12/22 08:16:57;;;;;;;;;;;;;;;8.20;100.00;100475.53;4996135;28;20001;-67
2022/12/22 08:19:22;;;;;;;;;;;;;;;8.19;100.00;100471.25;4995845;28;19913;-67
2022/12/22 08:21:48;;;;;;;;;;;;;;;8.18;100.00;100472.16;4993947;28;19929;-67
2022/12/22 08:24:13;;;;;;;;;;;;;;;8.18;100.00;100473.88;4993749;28;20029;-67
2022/12/22 08:26:43;;;;;;;;;;;;;;;8.19;100.00;100479.00;4991948;28;19913;-67
2022/12/22 08:29:17;;;;;;;;;;;;;;;8.17;100.00;100475.59;4994375;28;19914;-67
2022/12/22 08:31:42;;;;;;;;;;;;;;;8.17;100.00;100482.50;4993093;28;19954;-67
2022/12/22 08:34:09;;;;;;;;;;;;;;;8.16;100.00;100483.38;4987622;28;19937;-67
2022/12/22 08:36:36;;;;;;;;;;;;;;;8.16;100.00;100488.53;4994971;28;20339;-67
2022/12/22 08:39:02;;;;;;;;;;;;;;;8.13;100.00;100496.31;4993105;28;20416;-67
2022/12/22 08:44:12;;;;;;;;;;;;;;;8.07;100.00;100510.22;4993034;28;20066;-67
2022/12/22 08:46:37;;;;;;;;;;;;;;;8.05;100.00;100531.78;4984189;28;20020;-67
2022/12/22 08:49:03;;;;;;;;;;;;;;;8.01;100.00;100532.69;4992509;28;19918;-67
2022/12/22 08:51:28;;;;;;;;;;;;;;;8.00;100.00;100534.44;4991792;28;20308;-67
2022/12/22 08:53:53;;;;;;;;;;;;;;;8.00;100.00;100549.06;4992993;28;20439;-67
2022/12/22 08:56:18;;;;;;;;;;;;;;;7.98;100.00;100548.25;4997961;28;19913;-67
2022/12/22 08:58:43;;;;;;;;;;;;;;;7.94;100.00;100556.03;4994618;28;19914;-68
2022/12/22 09:01:14;;;;;;;;;;;;;;;7.93;100.00;100564.66;4993832;28;19914;-68
2022/12/22 09:03:39;;;;;;;;;;;;;;;7.89;100.00;100564.75;4994450;28;19905;-67
2022/12/22 09:06:05;;;;;;;;;;;;;;;7.84;100.00;100564.84;4994042;28;19918;-67
2022/12/22 09:08:30;;;;;;;;;;;;;;;7.83;100.00;100567.44;4993521;28;19918;-67
2022/12/22 09:10:55;;;;;;;;;;;;;;;7.79;100.00;100566.63;4992884;28;19910;-67
2022/12/22 09:13:20;;;;;;;;;;;;;;;7.78;100.00;100575.22;4993573;28;19921;-67
2022/12/22 09:15:45;;;;;;;;;;;;;;;7.75;100.00;100589.94;4990896;28;20069;-67
2022/12/22 09:18:10;;;;;;;;;;;;;;;7.70;100.00;100590.00;4974426;28;19974;-67
2022/12/22 09:20:36;;;;;;;;;;;;;;;7.63;100.00;100588.41;4974268;28;20332;-67
2022/12/22 09:23:01;;;;;;;;;;;;;;;7.57;100.00;100591.09;4974743;28;20012;-67
2022/12/22 09:25:26;;;;;;;;;;;;;;;7.51;100.00;100597.16;4993241;28;20000;-67
2022/12/22 09:27:51;;;;;;;;;;;;;;;7.45;100.00;100591.25;4992866;28;20204;-67
2022/12/22 09:30:17;;;;;;;;;;;;;;;7.45;100.00;100596.41;4993006;28;19935;-67
2022/12/22 09:32:42;;;;;;;;;;;;;;;7.43;100.00;100600.75;4991479;28;20383;-67
2022/12/22 09:35:07;;;;;;;;;;;;;;;7.42;100.00;100599.91;4993882;28;20288;-67
2022/12/22 09:37:32;;;;;;;;;;;;;;;7.40;100.00;100599.06;4993355;28;19945;-67
2022/12/22 09:39:58;;;;;;;;;;;;;;;7.39;100.00;100602.50;4992183;28;19922;-72
2022/12/22 09:42:23;;;;;;;;;;;;;;;7.39;100.00;100605.09;4974662;28;19914;-72
2022/12/22 09:44:50;;;;;;;;;;;;;;;7.42;100.00;100607.63;4993022;28;19909;-72
2022/12/22 09:47:28;;;;;;;;;;;;;;;7.45;100.00;100615.31;4991675;28;19918;-72
2022/12/22 09:49:55;;;;;;;;;;;;;;;7.50;100.00;100617.84;4992103;28;19913;-72
2022/12/22 09:52:38;;;;;;;;;;;;;;;7.50;100.00;100625.56;4992927;28;19917;-72
2022/12/22 09:55:11;;;;;;;;;;;;;;;7.50;100.00;100617.84;4979377;28;20329;-71
2022/12/22 09:57:36;;;;;;;;;;;;;;;7.50;100.00;100623.84;4991885;28;19939;-71
2022/12/22 10:00:06;;;;;;;;;;;;;;;7.46;100.00;100616.16;4991285;28;19914;-71
2022/12/22 10:02:36;;;;;;;;;;;;;;;7.44;100.00;100630.78;4992342;28;20407;-72
2022/12/22 10:05:37;;;;;;;;;;;;;;;7.45;100.00;100627.34;4992178;28;19916;-71
2022/12/22 10:08:08;;;;;;;;;;;;;;;7.48;100.00;100624.72;4951494;28;20325;-72
2022/12/22 10:10:33;;;;;;;;;;;;;;;7.56;100.00;100624.63;4993102;28;20299;-68
2022/12/22 10:13:00;;;;;;;;;;;;;;;7.68;100.00;100637.34;4992348;28;20390;-67
2022/12/22 10:15:26;;;;;;;;;;;;;;;7.79;100.00;100638.00;4992283;28;20447;-67
2022/12/22 10:18:07;;;;;;;;;;;;;;;7.99;100.00;100633.38;4993677;28;19916;-67
2022/12/22 10:20:33;;;;;;;;;;;;;;;8.11;100.00;100642.66;4980809;28;19913;-68
2022/12/22 10:23:05;;;;;;;;;;;;;;;8.16;100.00;100626.22;4993228;28;19956;-68
2022/12/22 10:25:30;;;;;;;;;;;;;;;8.20;100.00;100625.28;4993341;28;20373;-68
2022/12/22 10:27:57;;;;;;;;;;;;;;;8.29;100.00;100637.19;4992473;28;20368;-68
2022/12/22 10:30:23;;;;;;;;;;;;;;;8.30;100.00;100646.63;4992112;28;19913;-68
2022/12/22 10:33:09;;;;;;;;;;;;;;;8.24;100.00;100646.75;4991693;28;20127;-67
2022/12/22 10:35:41;;;;;;;;;;;;;;;8.28;100.00;100645.81;4983860;28;19990;-67
2022/12/22 10:38:12;;;;;;;;;;;;;;;8.25;100.00;100644.16;4993101;28;19914;-67
2022/12/22 10:40:41;;;;;;;;;;;;;;;8.25;100.00;100644.16;4992822;28;20415;-67
2022/12/22 10:43:07;;;;;;;;;;;;;;;8.28;100.00;100644.06;4991098;28;19918;-68
2022/12/22 10:45:32;;;;;;;;;;;;;;;8.27;100.00;100652.69;4993471;28;19917;-67
2022/12/22 10:47:57;;;;;;;;;;;;;;;8.24;100.00;100650.19;4996951;28;20455;-68
2022/12/22 10:50:23;;;;;;;;;;;;;;;8.19;100.00;100654.53;4996786;28;19917;-68
2022/12/22 10:52:52;;;;;;;;;;;;;;;8.17;100.00;100651.16;4979210;28;19913;-67
2022/12/22 10:55:27;;;;;;;;;;;;;;;8.20;100.00;100655.41;4996344;28;19910;-67
2022/12/22 10:58:05;;;;;;;;;;;;;;;8.13;100.00;100654.66;4996994;28;20349;-67
2022/12/22 11:00:31;;;;;;;;;;;;;;;8.03;100.00;100662.59;4986271;28;19920;-67
2022/12/22 11:02:57;;;;;;;;;;;;;;;7.99;100.00;100656.59;4993331;28;20005;-68
2022/12/22 11:05:22;;;;;;;;;;;;;;;7.91;100.00;100668.81;4987152;28;19918;-67
2022/12/22 11:07:48;;;;;;;;;;;;;;;7.89;100.00;100673.97;4992144;28;19914;-67
2022/12/22 11:10:13;;;;;;;;;;;;;;;7.84;100.00;100670.63;4995508;28;20000;-67
2022/12/22 11:12:38;;;;;;;;;;;;;;;7.78;100.00;100672.44;4996367;28;19913;-67
2022/12/22 11:15:03;;;;;;;;;;;;;;;7.68;100.00;100682.03;4995150;28;19913;-67
2022/12/22 11:17:43;;;;;;;;;;;;;;;7.59;100.00;100682.16;4996425;28;19923;-68
2022/12/22 11:20:21;;;;;;;;;;;;;;;7.52;100.00;100690.84;4996231;28;19913;-68
2022/12/22 11:23:18;;;;;;;;;;;;;;;7.50;100.00;100690.06;4978401;28;19914;-67
2022/12/22 11:25:50;;;;;;;;;;;;;;;7.55;100.00;100680.50;4948458;28;19914;-67
2022/12/22 11:28:34;;;;;;;;;;;;;;;7.61;100.00;100684.72;4995554;28;19949;-67
2022/12/22 11:31:12;;;;;;;;;;;;;;;7.70;100.00;100688.03;4992488;28;19914;-67
2022/12/22 11:33:52;;;;;;;;;;;;;;;7.77;100.00;100684.50;4987421;28;19917;-67
2022/12/22 11:36:24;;;;;;;;;;;;;;;7.81;100.00;100695.59;4995734;28;19965;-68
2022/12/22 11:38:50;;;;;;;;;;;;;;;7.78;100.00;100687.94;4995693;28;19914;-67
2022/12/22 11:41:24;;;;;;;;;;;;;;;7.76;100.00;100692.25;4995106;28;19937;-67
2022/12/22 11:44:01;;;;;;;;;;;;;;;7.75;100.00;100698.28;4990316;28;19906;-67
2022/12/22 11:46:26;;;;;;;;;;;;;;;7.72;100.00;100699.16;4975318;28;19914;-67
2022/12/22 11:49:05;;;;;;;;;;;;;;;7.72;100.00;100703.47;4990368;28;19910;-67
2022/12/22 11:51:30;;;;;;;;;;;;;;;7.73;100.00;100703.47;4995739;28;19925;-67
2022/12/22 11:54:14;;;;;;;;;;;;;;;7.72;100.00;100704.31;4993546;28;19910;-67
2022/12/22 11:56:41;;;;;;;;;;;;;;;7.74;100.00;100710.31;4986393;28;19914;-67
2022/12/22 11:59:25;;;;;;;;;;;;;;;7.83;100.00;100717.09;4994066;28;20141;-67
2022/12/22 12:02:09;;;;;;;;;;;;;;;7.98;100.00;100705.69;4998805;28;20312;-67
2022/12/22 12:04:37;;;;;;;;;;;;;;;8.08;100.00;100707.25;4995187;28;19991;-68
2022/12/22 12:07:25;;;;;;;;;;;;;;;8.12;100.00;100702.00;4995639;28;19925;-67
2022/12/22 12:10:11;;;;;;;;;;;;;;;8.15;100.00;100699.38;4985112;28;19910;-67
2022/12/22 12:12:36;;;;;;;;;;;;;;;8.26;100.00;100696.59;4938618;28;20372;-67
2022/12/22 12:15:10;;;;;;;;;;;;;;;8.39;100.00;100692.16;4995798;28;19910;-67
2022/12/22 12:17:49;;;;;;;;;;;;;;;8.48;100.00;100686.81;4984611;28;20000;-67
2022/12/22 12:20:24;;;;;;;;;;;;;;;8.55;100.00;100680.66;4995487;28;20115;-67
2022/12/22 12:23:10;;;;;;;;;;;;;;;8.58;100.00;100678.03;4994180;28;19965;-67
2022/12/22 12:25:54;;;;;;;;;;;;;;;8.63;100.00;100669.31;4991986;28;19938;-67
2022/12/22 12:28:30;;;;;;;;;;;;;;;8.67;100.00;100681.28;4993882;28;19914;-67
2022/12/22 12:30:59;;;;;;;;;;;;;;;8.67;100.00;100670.09;4995032;28;19917;-67
2022/12/22 12:33:44;;;;;;;;;;;;;;;8.68;100.00;100670.06;4994171;28;19906;-67
2022/12/22 12:36:16;;;;;;;;;;;;;;;8.73;100.00;100671.72;4985761;28;19917;-67
2022/12/22 12:39:08;;;;;;;;;;;;;;;8.75;100.00;100654.44;4977453;28;20399;-71
2022/12/22 12:41:39;;;;;;;;;;;;;;;8.70;100.00;100657.13;4987628;28;19914;-72
2022/12/22 12:44:08;;;;;;;;;;;;;;;8.65;100.00;100658.94;4993359;28;20000;-71
2022/12/22 12:46:39;;;;;;;;;;;;;;;8.60;100.00;100650.41;4993657;28;19917;-71
2022/12/22 12:49:04;;;;;;;;;;;;;;;8.61;100.00;100652.97;4994328;28;19920;-72
2022/12/22 12:51:48;;;;;;;;;;;;;;;8.68;100.00;100653.69;4993625;28;19909;-72
2022/12/22 12:54:21;;;;;;;;;;;;;;;8.65;100.00;100646.88;4991210;28;19922;-71
2022/12/22 12:56:54;;;;;;;;;;;;;;;8.59;100.00;100649.59;4990149;28;19949;-71
2022/12/22 12:59:51;;;;;;;;;;;;;;;8.58;100.00;100647.03;4993536;28;19977;-70
2022/12/22 13:02:26;;;;;;;;;;;;;;;8.59;100.00;100654.75;4948645;28;19913;-70
2022/12/22 13:05:01;;;;;;;;;;;;;;;8.61;100.00;100659.88;4989437;28;19921;-70
2022/12/22 13:07:45;;;;;;;;;;;;;;;8.61;100.00;100654.69;4995251;28;20157;-70
2022/12/22 13:10:21;;;;;;;;;;;;;;;8.61;100.00;100652.97;4994781;28;19921;-66
2022/12/22 13:12:50;;;;;;;;;;;;;;;8.60;100.00;100658.16;4988551;28;19913;-67
2022/12/22 13:15:36;;;;;;;;;;;;;;;8.61;100.00;100647.81;4994727;28;20360;-67
2022/12/22 13:18:02;;;;;;;;;;;;;;;8.66;100.00;100646.00;4994295;28;19910;-67
2022/12/22 13:20:35;;;;;;;;;;;;;;;8.70;100.00;100657.13;4994693;28;19910;-67
2022/12/22 13:23:02;;;;;;;;;;;;;;;8.70;100.00;100650.22;4977373;28;19960;-67
2022/12/22 13:25:38;;;;;;;;;;;;;;;8.70;100.00;100647.63;4994998;28;20439;-67
2022/12/22 13:28:04;;;;;;;;;;;;;;;8.73;100.00;100651.91;4994306;28;19909;-67
2022/12/22 13:30:30;;;;;;;;;;;;;;;8.75;100.00;100657.03;4994855;28;19913;-67
2022/12/22 13:32:56;;;;;;;;;;;;;;;8.74;100.00;100648.41;4994043;28;19916;-67
2022/12/22 13:35:29;;;;;;;;;;;;;;;8.69;100.00;100653.69;4985999;28;19913;-67
2022/12/22 13:37:56;;;;;;;;;;;;;;;8.64;100.00;100654.66;4989490;28;19948;-67
2022/12/22 13:40:22;;;;;;;;;;;;;;;8.62;100.00;100657.25;4993095;28;19910;-71
2022/12/22 13:42:53;;;;;;;;;;;;;;;8.59;100.00;100656.47;4991704;28;19910;-71
2022/12/22 13:45:28;;;;;;;;;;;;;;;8.58;100.00;100650.47;4992284;28;19944;-71
2022/12/22 13:47:54;;;;;;;;;;;;;;;8.59;100.00;100649.59;4993060;28;19914;-71
2022/12/22 13:50:21;;;;;;;;;;;;;;;8.59;100.00;100635.81;4992887;28;20004;-71
2022/12/22 13:52:47;;;;;;;;;;;;;;;8.58;100.00;100636.69;4979696;28;19963;-71
2022/12/22 13:55:14;;;;;;;;;;;;;;;8.57;100.00;100635.84;4992997;28;19909;-71
2022/12/22 13:57:40;;;;;;;;;;;;;;;8.58;100.00;100631.53;4992164;28;19910;-71
2022/12/22 14:00:15;;;;;;;;;;;;;;;8.60;100.00;100633.19;4991931;28;19924;-71
2022/12/22 14:02:43;;;;;;;;;;;;;;;8.59;100.00;100625.47;4992684;28;19914;-71
2022/12/22 14:05:11;;;;;;;;;;;;;;;8.55;100.00;100629.84;4992707;28;19943;-71
2022/12/22 14:07:36;;;;;;;;;;;;;;;8.48;100.00;100623.06;4992809;28;19925;-71
2022/12/22 14:10:01;;;;;;;;;;;;;;;8.46;100.00;100617.09;4992428;28;19914;-71
2022/12/22 14:12:29;;;;;;;;;;;;;;;8.47;100.00;100607.59;4991012;28;19975;-71
2022/12/22 14:14:55;;;;;;;;;;;;;;;8.50;100.00;100618.75;4981716;28;19914;-71
2022/12/22 14:17:22;;;;;;;;;;;;;;;8.51;100.00;100610.13;4988428;28;20503;-71
2022/12/22 14:19:51;;;;;;;;;;;;;;;8.51;100.00;100620.44;4990990;28;19918;-71
2022/12/22 14:22:22;;;;;;;;;;;;;;;8.50;100.00;100618.75;4977243;28;20149;-71
2022/12/22 14:24:49;;;;;;;;;;;;;;;8.46;100.00;100614.50;5002351;28;19936;-71
2022/12/22 14:27:22;;;;;;;;;;;;;;;8.42;100.00;100612.88;4977369;28;19918;-71
2022/12/22 14:29:47;;;;;;;;;;;;;;;8.39;100.00;100607.78;4994448;28;19914;-71
2022/12/22 14:32:32;;;;;;;;;;;;;;;8.38;100.00;100602.63;4995416;28;20299;-71
2022/12/22 14:34:57;;;;;;;;;;;;;;;8.34;100.00;100591.50;4995527;28;19910;-71
2022/12/22 14:37:23;;;;;;;;;;;;;;;8.31;100.00;100595.00;4992983;28;19913;-71
2022/12/22 14:39:53;;;;;;;;;;;;;;;8.29;100.00;100591.56;4996223;28;20462;-71
2022/12/22 14:42:18;;;;;;;;;;;;;;;8.26;100.00;100583.84;4979878;28;19956;-71
2022/12/22 14:44:45;;;;;;;;;;;;;;;8.24;100.00;100575.31;4994464;28;20000;-71
2022/12/22 14:47:10;;;;;;;;;;;;;;;8.20;100.00;100572.78;4993939;28;20176;-71
2022/12/22 14:49:56;;;;;;;;;;;;;;;8.17;100.00;100572.84;4995985;28;20129;-71
2022/12/22 14:52:36;;;;;;;;;;;;;;;8.16;100.00;100566.00;4990279;28;20361;-71
2022/12/22 14:55:03;;;;;;;;;;;;;;;8.14;100.00;100573.75;4990308;28;19913;-71
2022/12/22 14:57:35;;;;;;;;;;;;;;;8.12;100.00;100570.34;5002806;28;19914;-71
2022/12/22 15:00:06;;;;;;;;;;;;;;;8.07;100.00;100563.56;4995660;28;20005;-71
2022/12/22 15:02:36;;;;;;;;;;;;;;;8.06;100.00;100559.28;4995825;28;20004;-71
2022/12/22 15:05:22;;;;;;;;;;;;;;;8.04;100.00;100556.75;4995323;28;19956;-71
2022/12/22 15:07:48;;;;;;;;;;;;;;;8.04;100.00;100574.81;4994331;28;19918;-71
2022/12/22 15:10:13;;;;;;;;;;;;;;;8.03;100.00;100567.94;4993949;28;20381;-71
2022/12/22 15:12:39;;;;;;;;;;;;;;;8.02;100.00;100571.41;4994789;28;20397;-71
2022/12/22 15:15:11;;;;;;;;;;;;;;;8.01;100.00;100564.53;4992968;28;20399;-71
2022/12/22 15:17:36;;;;;;;;;;;;;;;8.00;100.00;100561.97;4993669;28;19913;-72
2022/12/22 15:20:02;;;;;;;;;;;;;;;7.96;100.00;100558.59;4982911;28;19914;-72
2022/12/22 15:22:27;;;;;;;;;;;;;;;7.92;100.00;100560.38;4995024;28;19913;-72
2022/12/22 15:24:52;;;;;;;;;;;;;;;7.90;100.00;100553.56;4994811;28;19945;-72
2022/12/22 15:27:17;;;;;;;;;;;;;;;7.88;100.00;100550.13;4992872;28;19952;-72
2022/12/22 15:29:43;;;;;;;;;;;;;;;7.85;100.00;100545.00;4996071;28;19909;-72
2022/12/22 15:32:11;;;;;;;;;;;;;;;7.82;100.00;100545.94;4994410;28;19910;-73
2022/12/22 15:34:37;;;;;;;;;;;;;;;7.80;100.00;100541.66;4995213;28;19913;-72
2022/12/22 15:37:02;;;;;;;;;;;;;;;7.77;100.00;100536.59;4995255;28;19917;-72
2022/12/22 15:39:27;;;;;;;;;;;;;;;7.74;100.00;100532.31;4993658;28;20399;-72
2022/12/22 15:41:53;;;;;;;;;;;;;;;7.72;100.00;100535.78;4992151;28;19913;-72
2022/12/22 15:44:20;;;;;;;;;;;;;;;7.68;100.00;100522.09;4992559;28;19960;-71
2022/12/22 15:46:49;;;;;;;;;;;;;;;7.65;100.00;100529.88;4992459;28;20281;-71
2022/12/22 15:49:16;;;;;;;;;;;;;;;7.64;100.00;100520.47;4993654;28;19956;-71
2022/12/22 15:51:42;;;;;;;;;;;;;;;7.62;100.00;100524.78;4991918;28;20456;-72
2022/12/22 15:54:10;;;;;;;;;;;;;;;7.63;100.00;100526.50;4991945;28;20004;-72
2022/12/22 15:56:36;;;;;;;;;;;;;;;7.63;100.00;100523.06;4984073;28;19921;-72
2022/12/22 15:59:01;;;;;;;;;;;;;;;7.62;100.00;100511.91;4998010;28;19917;-72
2022/12/22 16:01:26;;;;;;;;;;;;;;;7.60;100.00;100507.63;4994542;28;20210;-71
2022/12/22 16:03:51;;;;;;;;;;;;;;;7.59;100.00;100511.94;4977438;28;19937;-71
2022/12/22 16:06:18;;;;;;;;;;;;;;;7.58;100.00;100494.75;4993473;28;19939;-71
2022/12/22 16:08:49;;;;;;;;;;;;;;;7.59;100.00;100493.03;4994493;28;20402;-71
2022/12/22 16:11:15;;;;;;;;;;;;;;;7.60;100.00;100487.00;4977375;28;20397;-71
2022/12/22 16:13:40;;;;;;;;;;;;;;;7.59;100.00;100483.56;4992251;28;19910;-71
2022/12/22 16:16:07;;;;;;;;;;;;;;;7.60;100.00;100485.28;4992117;28;19940;-71
2022/12/22 16:18:32;;;;;;;;;;;;;;;7.61;100.00;100480.97;4994587;28;19939;-67
2022/12/22 16:21:01;;;;;;;;;;;;;;;7.60;100.00;100477.53;4990922;28;20318;-67